createdAt,value
2022-08-17T00:00:43.193Z,69.75
2022-08-17T00:03:13.636Z,69.92
2022-08-17T00:05:50.689Z,70.00
2022-08-17T00:08:22.073Z,70.19
2022-08-17T00:10:52.556Z,70.37
2022-08-17T00:13:28.540Z,70.50
2022-08-17T00:15:59.982Z,70.82
2022-08-17T00:19:06.104Z,71.17
2022-08-17T00:21:23.774Z,71.06
2022-08-17T00:23:54.504Z,71.27
2022-08-17T00:26:34.627Z,71.15
2022-08-17T00:29:19.391Z,71.60
2022-08-17T00:31:49.752Z,71.51
2022-08-17T00:34:18.304Z,71.90
2022-08-17T00:36:46.531Z,72.18
2022-08-17T00:39:14.777Z,72.12
2022-08-17T00:41:43.395Z,72.26
2022-08-17T00:44:12.484Z,72.39
2022-08-17T00:46:43.812Z,72.38
2022-08-17T00:49:14.350Z,72.49
2022-08-17T00:51:49.478Z,72.37
2022-08-17T00:54:33.113Z,72.35
2022-08-17T00:57:16.609Z,72.54
2022-08-17T01:00:01.629Z,72.36
2022-08-17T01:02:41.967Z,72.12
2022-08-17T01:05:25.295Z,72.02
2022-08-17T01:07:54.502Z,71.82
2022-08-17T01:10:57.193Z,71.63
2022-08-17T01:13:18.212Z,71.63
2022-08-17T01:15:50.867Z,71.53
2022-08-17T01:18:19.451Z,71.34
2022-08-17T01:20:50.785Z,71.49
2022-08-17T01:23:21.435Z,71.68
2022-08-17T01:25:58.232Z,71.86
2022-08-17T01:28:52.299Z,72.03
2022-08-17T01:31:19.472Z,72.00
2022-08-17T01:33:47.928Z,71.98
2022-08-17T01:36:16.199Z,71.91
2022-08-17T01:38:44.270Z,71.93
2022-08-17T01:41:16.647Z,71.84
2022-08-17T01:43:49.962Z,71.98
2022-08-17T01:46:26.302Z,71.93
2022-08-17T01:48:56.454Z,71.99
2022-08-17T01:51:33.181Z,72.20
2022-08-17T01:54:08.962Z,72.24
2022-08-17T01:56:40.706Z,72.33
2022-08-17T01:59:10.227Z,72.47
2022-08-17T02:01:38.754Z,72.45
2022-08-17T02:04:08.583Z,72.82
2022-08-17T02:06:44.912Z,72.69
2022-08-17T02:09:16.937Z,72.74
2022-08-17T02:11:46.224Z,72.88
2022-08-17T02:14:14.522Z,72.74
2022-08-17T02:16:42.894Z,72.93
2022-08-17T02:19:16.020Z,72.92
2022-08-17T02:21:47.976Z,73.11
2022-08-17T02:24:58.834Z,73.02
2022-08-17T02:27:10.205Z,73.07
2022-08-17T02:29:38.895Z,73.04
2022-08-17T02:32:15.565Z,73.12
2022-08-17T02:34:54.597Z,73.30
2022-08-17T02:37:22.767Z,73.36
2022-08-17T02:39:51.018Z,73.27
2022-08-17T02:42:27.786Z,73.49
2022-08-17T02:44:56.032Z,73.48
2022-08-17T02:47:25.504Z,73.47
2022-08-17T02:49:55.834Z,73.53
2022-08-17T02:52:43.318Z,73.74
2022-08-17T02:55:17.061Z,73.90
2022-08-17T02:57:45.593Z,73.88
2022-08-17T03:00:18.880Z,74.01
2022-08-17T03:02:47.889Z,73.90
2022-08-17T03:05:20.528Z,73.90
2022-08-17T03:07:49.293Z,73.88
2022-08-17T03:10:18.215Z,73.95
2022-08-17T03:12:47.106Z,73.83
2022-08-17T03:15:20.251Z,73.66
2022-08-17T03:17:48.771Z,73.53
2022-08-17T03:20:17.392Z,73.54
2022-08-17T03:22:53.673Z,73.56
2022-08-17T03:25:26.813Z,73.66
2022-08-17T03:27:56.908Z,73.67
2022-08-17T03:30:27.142Z,73.73
2022-08-17T03:33:00.321Z,73.67
2022-08-17T03:35:32.007Z,73.63
2022-08-17T03:38:01.370Z,73.69
2022-08-17T03:40:34.441Z,73.54
2022-08-17T03:43:22.107Z,73.68
2022-08-17T03:46:10.818Z,73.80
2022-08-17T03:49:15.720Z,74.22
2022-08-17T03:52:02.410Z,74.20
2022-08-17T03:54:49.318Z,74.39
2022-08-17T03:57:17.590Z,74.74
2022-08-17T03:59:45.773Z,74.63
2022-08-17T04:02:24.147Z,74.75
2022-08-17T04:04:52.968Z,74.57
2022-08-17T04:07:23.706Z,74.31
2022-08-17T04:09:51.979Z,74.37
2022-08-17T04:12:23.195Z,74.41
2022-08-17T04:14:54.683Z,74.22
2022-08-17T04:17:26.235Z,74.28
2022-08-17T04:19:55.649Z,74.43
2022-08-17T04:22:30.803Z,74.44
2022-08-17T04:25:08.688Z,74.41
2022-08-17T04:27:36.878Z,74.36
2022-08-17T04:30:07.442Z,74.42
2022-08-17T04:32:58.576Z,74.21
2022-08-17T04:35:43.805Z,74.28
2022-08-17T04:38:14.950Z,74.32
2022-08-17T04:41:02.028Z,74.26
2022-08-17T04:43:32.437Z,74.21
2022-08-17T04:46:03.063Z,74.07
2022-08-17T04:48:35.969Z,73.92
2022-08-17T04:51:08.303Z,73.52
2022-08-17T04:53:36.617Z,73.36
2022-08-17T04:56:05.202Z,73.38
2022-08-17T04:58:33.996Z,73.20
2022-08-17T05:01:02.065Z,73.12
2022-08-17T05:03:30.856Z,73.02
2022-08-17T05:05:59.340Z,73.04
2022-08-17T05:08:27.405Z,72.95
2022-08-17T05:10:55.584Z,72.77
2022-08-17T05:13:26.699Z,72.90
2022-08-17T05:15:57.875Z,72.88
2022-08-17T05:18:27.677Z,72.98
2022-08-17T05:20:57.188Z,72.92
2022-08-17T05:23:27.598Z,72.98
2022-08-17T05:26:26.370Z,72.98
2022-08-17T05:28:58.452Z,72.82
2022-08-17T05:31:29.628Z,73.00
2022-08-17T05:33:59.025Z,72.89
2022-08-17T05:36:38.096Z,72.71
2022-08-17T05:39:16.319Z,72.69
2022-08-17T05:41:47.423Z,72.77
2022-08-17T05:44:16.468Z,72.69
2022-08-17T05:46:49.878Z,72.45
2022-08-17T05:49:24.725Z,72.43
2022-08-17T05:52:18.869Z,72.56
2022-08-17T05:55:03.362Z,72.20
2022-08-17T05:57:57.851Z,72.05
2022-08-17T06:00:34.111Z,71.97
2022-08-17T06:03:11.303Z,71.89
2022-08-17T06:05:59.459Z,71.88
2022-08-17T06:08:41.237Z,71.74
2022-08-17T06:11:27.439Z,71.64
2022-08-17T06:13:56.126Z,71.52
2022-08-17T06:16:34.497Z,71.45
2022-08-17T06:19:12.134Z,71.36
2022-08-17T06:21:44.809Z,71.09
2022-08-17T06:24:22.413Z,70.79
2022-08-17T06:26:51.418Z,70.55
2022-08-17T06:29:28.277Z,70.04
2022-08-17T06:31:57.096Z,69.61
2022-08-17T06:34:25.136Z,69.30
2022-08-17T06:37:15.125Z,69.18
2022-08-17T06:39:46.329Z,68.83
2022-08-17T06:43:00.819Z,68.81
2022-08-17T06:45:39.121Z,68.56
2022-08-17T06:48:10.188Z,68.42
2022-08-17T06:51:01.197Z,68.33
2022-08-17T06:53:45.778Z,68.16
2022-08-17T06:56:54.620Z,67.90
2022-08-17T06:59:25.401Z,67.86
2022-08-17T07:01:55.739Z,67.89
2022-08-17T07:04:30.310Z,67.83
2022-08-17T07:07:22.315Z,67.65
2022-08-17T07:09:52.992Z,67.77
2022-08-17T07:12:25.607Z,67.65
2022-08-17T07:15:04.504Z,67.88
2022-08-17T07:17:46.508Z,67.63
2022-08-17T07:20:20.657Z,67.49
2022-08-17T07:23:09.099Z,67.51
2022-08-17T07:25:37.167Z,67.62
2022-08-17T07:28:07.916Z,67.55
2022-08-17T07:30:46.963Z,67.64
2022-08-17T07:33:20.739Z,67.52
2022-08-17T07:35:50.282Z,67.44
2022-08-17T07:38:26.858Z,66.94
2022-08-17T07:41:02.156Z,66.62
2022-08-17T07:43:42.414Z,66.53
2022-08-17T07:46:38.241Z,66.48
2022-08-17T07:49:09.301Z,65.44
2022-08-17T07:51:39.678Z,65.20
2022-08-17T07:54:20.579Z,65.46
2022-08-17T07:56:56.327Z,65.00
2022-08-17T07:59:41.270Z,64.63
2022-08-17T08:02:17.238Z,63.47
2022-08-17T08:05:30.696Z,63.22
2022-08-17T08:08:35.929Z,62.23
2022-08-17T08:11:28.479Z,61.84
2022-08-17T08:14:22.718Z,61.00
2022-08-17T08:17:06.816Z,60.08
2022-08-17T08:19:37.444Z,60.40
2022-08-17T08:22:11.192Z,59.78
2022-08-17T08:24:56.731Z,60.05
2022-08-17T08:27:34.716Z,59.54
2022-08-17T08:30:06.694Z,59.27
2022-08-17T08:32:56.622Z,59.07
2022-08-17T08:35:38.166Z,59.01
2022-08-17T08:38:23.755Z,59.14
2022-08-17T08:41:10.257Z,59.37
2022-08-17T08:43:56.969Z,59.09
2022-08-17T08:46:28.008Z,58.96
2022-08-17T08:49:33.803Z,58.49
2022-08-17T08:52:35.826Z,57.80
2022-08-17T08:55:10.869Z,57.20
2022-08-17T08:58:04.230Z,57.31
2022-08-17T09:00:38.233Z,56.26
2022-08-17T09:03:20.367Z,56.13
2022-08-17T09:05:53.669Z,56.28
2022-08-17T09:08:24.722Z,56.01
2022-08-17T09:11:18.043Z,55.35
2022-08-17T09:14:21.151Z,54.22
2022-08-17T09:17:15.185Z,54.34
2022-08-17T09:19:53.670Z,54.28
2022-08-17T09:22:32.656Z,54.53
2022-08-17T09:25:07.386Z,54.55
2022-08-17T09:27:57.580Z,54.79
2022-08-17T09:30:43.655Z,54.72
2022-08-17T09:33:15.844Z,54.34
2022-08-17T09:35:50.581Z,53.83
2022-08-17T09:38:44.646Z,53.83
2022-08-17T09:41:39.040Z,53.84
2022-08-17T09:44:23.060Z,53.52
2022-08-17T09:47:05.005Z,53.48
2022-08-17T09:50:02.344Z,53.49
2022-08-17T09:52:32.289Z,53.68
2022-08-17T09:55:01.986Z,53.65
2022-08-17T09:58:07.517Z,53.65
2022-08-17T10:00:41.081Z,54.12
2022-08-17T10:03:28.539Z,53.77
2022-08-17T10:06:24.633Z,53.42
2022-08-17T10:09:08.447Z,53.30
2022-08-17T10:12:01.573Z,53.81
2022-08-17T10:14:43.958Z,53.13
2022-08-17T10:17:29.149Z,53.10
2022-08-17T10:20:15.686Z,53.09
2022-08-17T10:23:09.630Z,52.58
2022-08-17T10:26:04.122Z,51.80
2022-08-17T10:28:49.322Z,51.50
2022-08-17T10:31:40.082Z,51.44
2022-08-17T10:34:40.983Z,51.56
2022-08-17T10:37:25.394Z,51.62
2022-08-17T10:40:02.864Z,51.41
2022-08-17T10:42:43.963Z,51.09
2022-08-17T10:46:30.974Z,51.04
2022-08-17T10:49:25.376Z,50.34
2022-08-17T10:51:58.852Z,49.74
2022-08-17T10:54:39.059Z,49.45
2022-08-17T10:57:32.194Z,49.50
2022-08-17T11:00:08.559Z,49.29
2022-08-17T11:02:51.299Z,48.78
2022-08-17T11:05:42.982Z,47.85
2022-08-17T11:08:27.460Z,47.56
2022-08-17T11:11:23.485Z,48.11
2022-08-17T11:14:14.086Z,46.79
2022-08-17T11:17:05.213Z,46.93
2022-08-17T11:19:48.217Z,46.62
2022-08-17T11:22:37.285Z,46.41
2022-08-17T11:25:34.643Z,45.39
2022-08-17T11:28:14.618Z,44.35
2022-08-17T11:30:54.259Z,44.14
2022-08-17T11:33:38.169Z,44.55
2022-08-17T11:36:52.125Z,43.82
2022-08-17T11:39:38.383Z,44.06
2022-08-17T11:42:26.790Z,43.83
2022-08-17T11:45:03.652Z,44.08
2022-08-17T11:48:27.735Z,44.29
2022-08-17T11:51:27.247Z,43.32
2022-08-17T11:54:14.724Z,43.21
2022-08-17T11:56:48.992Z,43.54
2022-08-17T11:59:36.513Z,43.02
2022-08-17T12:02:31.365Z,43.45
2022-08-17T12:05:14.755Z,43.32
2022-08-17T12:08:17.833Z,43.12
2022-08-17T12:10:59.637Z,43.32
2022-08-17T12:13:38.525Z,43.14
2022-08-17T12:16:10.115Z,42.98
2022-08-17T12:18:39.866Z,43.03
2022-08-17T12:21:46.368Z,42.48
2022-08-17T12:24:14.573Z,41.39
2022-08-17T12:26:45.513Z,40.99
2022-08-17T12:29:17.863Z,40.88
2022-08-17T12:32:05.940Z,41.03
2022-08-17T12:34:40.862Z,41.49
2022-08-17T12:37:34.121Z,41.71
2022-08-17T12:40:04.930Z,41.59
2022-08-17T12:42:38.101Z,41.29
2022-08-17T12:45:24.221Z,41.80
2022-08-17T12:48:26.309Z,42.00
2022-08-17T12:51:01.827Z,41.74
2022-08-17T12:53:32.832Z,41.64
2022-08-17T12:56:07.624Z,41.55
2022-08-17T12:58:44.509Z,41.54
2022-08-17T13:01:17.600Z,41.03
2022-08-17T13:03:52.835Z,40.92
2022-08-17T13:06:33.486Z,40.84
2022-08-17T13:09:18.983Z,41.18
2022-08-17T13:11:53.608Z,40.96
2022-08-17T13:14:22.699Z,41.02
2022-08-17T13:17:00.717Z,41.06
2022-08-17T13:19:40.433Z,40.74
2022-08-17T13:22:12.866Z,40.97
2022-08-17T13:24:54.577Z,40.94
2022-08-17T13:27:26.074Z,41.43
2022-08-17T13:30:00.599Z,41.68
2022-08-17T13:32:48.948Z,42.06
2022-08-17T13:35:39.559Z,42.49
2022-08-17T13:38:30.502Z,44.26
2022-08-17T13:40:58.622Z,48.31
2022-08-17T13:43:45.946Z,51.34
2022-08-17T13:46:28.869Z,53.32
2022-08-17T13:49:06.268Z,52.81
2022-08-17T13:51:44.250Z,54.04
2022-08-17T13:54:30.250Z,55.58
2022-08-17T13:57:01.297Z,56.81
2022-08-17T13:59:52.662Z,56.65
2022-08-17T14:02:21.196Z,57.00
2022-08-17T14:04:49.372Z,56.86
2022-08-17T14:07:19.438Z,57.47
2022-08-17T14:09:55.761Z,58.29
2022-08-17T14:12:27.525Z,59.13
2022-08-17T14:14:56.602Z,58.17
2022-08-17T14:17:26.643Z,58.21
2022-08-17T14:19:55.204Z,57.45
2022-08-17T14:22:27.175Z,58.25
2022-08-17T14:24:55.240Z,57.91
2022-08-17T14:27:25.769Z,58.54
2022-08-17T14:29:56.447Z,59.27
2022-08-17T14:32:28.159Z,60.43
2022-08-17T14:34:57.845Z,60.56
2022-08-17T14:37:28.401Z,61.83
2022-08-17T14:39:58.653Z,62.29
2022-08-17T14:42:29.843Z,62.97
2022-08-17T14:44:59.991Z,62.82
2022-08-17T14:47:28.269Z,62.68
2022-08-17T14:49:56.440Z,61.02
2022-08-17T14:52:24.514Z,61.68
2022-08-17T14:54:53.821Z,62.51
2022-08-17T14:57:33.523Z,62.45
2022-08-17T15:00:04.976Z,62.97
2022-08-17T15:02:48.263Z,63.83
2022-08-17T15:05:17.690Z,64.02
2022-08-17T15:07:45.962Z,64.20
2022-08-17T15:10:15.528Z,62.75
2022-08-17T15:12:44.213Z,60.86
2022-08-17T15:15:14.672Z,60.70
2022-08-17T15:17:46.021Z,60.71
2022-08-17T15:20:20.933Z,59.86
2022-08-17T15:22:59.342Z,58.72
2022-08-17T15:25:30.042Z,58.80
2022-08-17T15:27:59.129Z,58.49
2022-08-17T15:30:28.427Z,57.27
2022-08-17T15:32:58.584Z,57.24
2022-08-17T15:35:30.757Z,57.80
2022-08-17T15:38:11.278Z,58.42
2022-08-17T15:40:43.455Z,57.63
2022-08-17T15:43:27.368Z,57.24
2022-08-17T15:46:02.101Z,58.73
2022-08-17T15:48:44.808Z,59.58
2022-08-17T15:51:31.894Z,60.22
2022-08-17T15:54:18.815Z,59.33
2022-08-17T15:56:51.069Z,58.88
2022-08-17T15:59:19.759Z,60.31
2022-08-17T16:03:04.668Z,61.35
2022-08-17T16:04:37.949Z,60.23
2022-08-17T16:07:10.082Z,60.51
2022-08-17T16:09:38.714Z,60.25
2022-08-17T16:12:11.955Z,59.62
2022-08-17T16:14:40.136Z,60.00
2022-08-17T16:17:49.380Z,61.38
2022-08-17T16:19:58.550Z,62.85
2022-08-17T16:22:36.136Z,63.54
2022-08-17T16:25:11.805Z,63.21
2022-08-17T16:27:40.122Z,61.86
2022-08-17T16:30:14.944Z,61.26
2022-08-17T16:32:46.731Z,61.26
2022-08-17T16:35:18.474Z,61.67
2022-08-17T16:37:47.157Z,62.94
2022-08-17T16:40:17.390Z,63.39
2022-08-17T16:42:48.730Z,63.33
2022-08-17T16:45:20.504Z,62.64
2022-08-17T16:47:50.252Z,62.50
2022-08-17T16:50:22.166Z,62.65
2022-08-17T16:52:51.323Z,62.45
2022-08-17T16:55:22.095Z,62.92
2022-08-17T16:57:50.897Z,63.46
2022-08-17T17:00:21.113Z,63.58
2022-08-17T17:02:50.041Z,64.25
2022-08-17T17:05:55.349Z,64.91
2022-08-17T17:08:31.200Z,65.08
2022-08-17T17:11:09.092Z,65.26
2022-08-17T17:13:49.559Z,65.65
2022-08-17T17:16:18.447Z,66.13
2022-08-17T17:19:00.378Z,66.32
2022-08-17T17:21:58.119Z,66.33
2022-08-17T17:24:32.153Z,66.47
2022-08-17T17:27:10.892Z,66.73
2022-08-17T17:29:47.907Z,66.73
2022-08-17T17:32:38.043Z,66.60
2022-08-17T17:35:17.151Z,67.35
2022-08-17T17:37:47.456Z,67.40
2022-08-17T17:40:23.173Z,67.35
2022-08-17T17:43:14.190Z,67.65
2022-08-17T17:46:26.697Z,68.27
2022-08-17T17:48:52.262Z,68.30
2022-08-17T17:52:01.991Z,68.77
2022-08-17T17:54:40.729Z,69.76
2022-08-17T17:57:36.149Z,70.44
2022-08-17T18:00:14.162Z,69.97
2022-08-17T18:03:24.713Z,69.95
2022-08-17T18:06:15.016Z,70.05
2022-08-17T18:08:49.434Z,69.91
2022-08-17T18:11:36.446Z,69.86
2022-08-17T18:14:20.117Z,70.71
2022-08-17T18:16:55.150Z,71.10
2022-08-17T18:19:25.856Z,72.57
2022-08-17T18:22:14.586Z,73.51
2022-08-17T18:24:46.433Z,74.41
2022-08-17T18:27:23.570Z,73.87
2022-08-17T18:29:54.898Z,73.65
2022-08-17T18:32:28.293Z,73.17
2022-08-17T18:35:11.327Z,73.17
2022-08-17T18:37:45.181Z,73.60
2022-08-17T18:40:16.480Z,74.43
2022-08-17T18:42:46.837Z,74.55
2022-08-17T18:45:48.662Z,74.43
2022-08-17T18:48:32.850Z,74.42
2022-08-17T18:51:26.308Z,74.31
2022-08-17T18:54:11.244Z,74.50
2022-08-17T18:56:49.763Z,74.25
2022-08-17T18:59:44.692Z,74.28
2022-08-17T19:02:22.068Z,74.47
2022-08-17T19:05:09.381Z,74.35
2022-08-17T19:07:41.780Z,73.99
2022-08-17T19:10:46.844Z,74.06
2022-08-17T19:13:24.969Z,74.59
2022-08-17T19:16:12.174Z,74.73
2022-08-17T19:18:52.790Z,74.53
2022-08-17T19:21:20.704Z,74.70
2022-08-17T19:24:05.421Z,74.82
2022-08-17T19:26:53.336Z,75.59
2022-08-17T19:29:27.567Z,75.61
2022-08-17T19:31:58.734Z,76.30
2022-08-17T19:34:33.223Z,76.44
2022-08-17T19:37:30.695Z,76.81
2022-08-17T19:40:35.124Z,77.15
2022-08-17T19:43:51.532Z,77.20
2022-08-17T19:46:50.014Z,77.98
2022-08-17T19:49:46.854Z,77.50
2022-08-17T19:52:48.868Z,77.16
2022-08-17T19:55:43.734Z,77.37
2022-08-17T19:58:18.246Z,77.34
2022-08-17T20:00:51.943Z,77.29
2022-08-17T20:03:35.177Z,77.07
2022-08-17T20:06:14.797Z,76.60
2022-08-17T20:09:18.736Z,77.00
2022-08-17T20:11:56.804Z,77.24
2022-08-17T20:14:36.174Z,76.81
2022-08-17T20:17:05.276Z,76.91
2022-08-17T20:20:06.642Z,76.87
2022-08-17T20:22:52.397Z,76.98
2022-08-17T20:25:32.418Z,76.69
2022-08-17T20:28:08.136Z,76.81
2022-08-17T20:30:41.518Z,76.98
2022-08-17T20:33:42.347Z,76.70
2022-08-17T20:36:18.614Z,76.85
2022-08-17T20:38:58.802Z,77.09
2022-08-17T20:41:31.146Z,77.13
2022-08-17T20:43:59.292Z,77.10
2022-08-17T20:46:36.406Z,77.14
2022-08-17T20:49:22.575Z,77.28
2022-08-17T20:52:01.449Z,77.38
2022-08-17T20:54:57.394Z,77.77
2022-08-17T20:57:31.703Z,78.01
2022-08-17T21:00:30.669Z,78.08
2022-08-17T21:03:27.916Z,78.26
2022-08-17T21:06:18.296Z,78.37
2022-08-17T21:09:16.493Z,78.48
2022-08-17T21:12:03.982Z,78.79
2022-08-17T21:14:44.408Z,78.74
2022-08-17T21:17:18.905Z,78.76
2022-08-17T21:20:12.110Z,78.61
2022-08-17T21:22:48.430Z,78.66
2022-08-17T21:25:53.262Z,78.35
2022-08-17T21:29:00.578Z,78.49
2022-08-17T21:31:36.109Z,78.60
2022-08-17T21:34:27.749Z,78.21
2022-08-17T21:37:16.376Z,78.13
2022-08-17T21:39:50.363Z,78.60
2022-08-17T21:42:25.795Z,78.89
2022-08-17T21:44:58.110Z,79.11
2022-08-17T21:47:29.036Z,79.10
2022-08-17T21:50:19.683Z,79.01
2022-08-17T21:52:50.382Z,79.02
2022-08-17T21:55:29.907Z,79.19
2022-08-17T21:58:13.328Z,79.01
2022-08-17T22:00:44.935Z,78.77
2022-08-17T22:03:24.409Z,78.64
2022-08-17T22:05:52.625Z,78.65
2022-08-17T22:08:24.808Z,78.99
2022-08-17T22:11:01.562Z,79.50
2022-08-17T22:13:30.116Z,79.51
2022-08-17T22:16:04.507Z,79.47
2022-08-17T22:18:45.337Z,79.47
2022-08-17T22:21:16.924Z,79.64
2022-08-17T22:24:05.267Z,79.57
2022-08-17T22:27:01.369Z,79.62
2022-08-17T22:29:57.068Z,79.90
2022-08-17T22:32:31.718Z,79.82
2022-08-17T22:35:19.776Z,79.77
2022-08-17T22:37:48.131Z,79.75
2022-08-17T22:40:34.661Z,79.78
2022-08-17T22:43:06.500Z,79.62
2022-08-17T22:45:47.164Z,79.51
2022-08-17T22:48:22.380Z,79.37
2022-08-17T22:51:19.357Z,79.28
2022-08-17T22:54:10.588Z,79.42
2022-08-17T22:57:05.366Z,79.83
2022-08-17T22:59:55.794Z,79.84
2022-08-17T23:02:35.472Z,79.96
2022-08-17T23:05:17.099Z,80.03
2022-08-17T23:07:47.178Z,79.87
2022-08-17T23:10:15.696Z,79.93
2022-08-17T23:12:43.870Z,79.66
2022-08-17T23:15:17.081Z,79.61
2022-08-17T23:17:46.354Z,79.79
2022-08-17T23:20:16.028Z,79.66
2022-08-17T23:22:52.821Z,79.56
2022-08-17T23:25:30.445Z,79.64
2022-08-17T23:28:01.762Z,79.82
2022-08-17T23:30:32.941Z,80.25
2022-08-17T23:33:07.561Z,80.47
2022-08-17T23:35:40.387Z,80.41
2022-08-17T23:38:10.979Z,80.17
2022-08-17T23:40:41.030Z,80.09
2022-08-17T23:43:23.951Z,80.30
2022-08-17T23:45:55.364Z,80.74
2022-08-17T23:48:32.516Z,80.91
2022-08-17T23:51:09.266Z,81.07
2022-08-17T23:53:42.008Z,81.29
2022-08-17T23:56:11.442Z,81.01
2022-08-17T23:58:42.505Z,81.08
